sensor_id;sensor_type;location;lat;lon;timestamp;P1;durP1;ratioP1;P2;durP2;ratioP2
42186;SDS011;27858;51.414;0.018;2024-01-30T00:00:20;12.48;;;6.35;;
42186;SDS011;27858;51.414;0.018;2024-01-30T00:02:47;14.52;;;4.93;;
42186;SDS011;27858;51.414;0.018;2024-01-30T00:05:14;14.82;;;5.63;;
42186;SDS011;27858;51.414;0.018;2024-01-30T00:07:41;14.20;;;5.35;;
42186;SDS011;27858;51.414;0.018;2024-01-30T00:10:07;8.68;;;4.50;;
42186;SDS011;27858;51.414;0.018;2024-01-30T00:12:34;12.07;;;6.03;;
42186;SDS011;27858;51.414;0.018;2024-01-30T00:15:01;16.63;;;4.97;;
42186;SDS011;27858;51.414;0.018;2024-01-30T00:17:30;14.73;;;5.13;;
42186;SDS011;27858;51.414;0.018;2024-01-30T00:19:57;10.60;;;5.10;;
42186;SDS011;27858;51.414;0.018;2024-01-30T00:22:24;17.67;;;5.45;;
42186;SDS011;27858;51.414;0.018;2024-01-30T00:24:51;21.63;;;6.68;;
42186;SDS011;27858;51.414;0.018;2024-01-30T00:27:18;17.80;;;6.60;;
42186;SDS011;27858;51.414;0.018;2024-01-30T00:29:45;13.27;;;4.82;;
42186;SDS011;27858;51.414;0.018;2024-01-30T00:32:11;10.63;;;4.82;;
42186;SDS011;27858;51.414;0.018;2024-01-30T00:34:38;12.00;;;4.80;;
42186;SDS011;27858;51.414;0.018;2024-01-30T00:37:05;8.73;;;4.78;;
42186;SDS011;27858;51.414;0.018;2024-01-30T00:39:32;8.50;;;4.80;;
42186;SDS011;27858;51.414;0.018;2024-01-30T00:41:59;10.32;;;4.63;;
42186;SDS011;27858;51.414;0.018;2024-01-30T00:44:26;10.90;;;4.50;;
42186;SDS011;27858;51.414;0.018;2024-01-30T00:46:53;7.63;;;2.95;;
42186;SDS011;27858;51.414;0.018;2024-01-30T00:49:20;10.57;;;4.75;;
42186;SDS011;27858;51.414;0.018;2024-01-30T00:51:47;11.65;;;4.57;;
42186;SDS011;27858;51.414;0.018;2024-01-30T00:54:14;10.95;;;4.93;;
42186;SDS011;27858;51.414;0.018;2024-01-30T00:56:40;10.13;;;3.85;;
42186;SDS011;27858;51.414;0.018;2024-01-30T00:59:07;7.70;;;3.13;;
42186;SDS011;27858;51.414;0.018;2024-01-30T01:01:34;6.93;;;3.88;;
42186;SDS011;27858;51.414;0.018;2024-01-30T01:04:01;10.23;;;3.25;;
42186;SDS011;27858;51.414;0.018;2024-01-30T01:06:28;10.75;;;3.17;;
42186;SDS011;27858;51.414;0.018;2024-01-30T01:08:55;5.18;;;3.10;;
42186;SDS011;27858;51.414;0.018;2024-01-30T01:11:22;10.45;;;2.25;;
42186;SDS011;27858;51.414;0.018;2024-01-30T01:13:48;13.02;;;3.42;;
42186;SDS011;27858;51.414;0.018;2024-01-30T01:16:15;5.47;;;2.42;;
42186;SDS011;27858;51.414;0.018;2024-01-30T01:18:42;5.07;;;2.35;;
42186;SDS011;27858;51.414;0.018;2024-01-30T01:21:09;8.60;;;2.53;;
42186;SDS011;27858;51.414;0.018;2024-01-30T01:23:36;10.07;;;2.75;;
42186;SDS011;27858;51.414;0.018;2024-01-30T01:26:02;5.05;;;1.70;;
42186;SDS011;27858;51.414;0.018;2024-01-30T01:28:29;6.30;;;2.55;;
42186;SDS011;27858;51.414;0.018;2024-01-30T01:30:56;4.40;;;1.77;;
42186;SDS011;27858;51.414;0.018;2024-01-30T01:33:27;6.85;;;2.17;;
42186;SDS011;27858;51.414;0.018;2024-01-30T01:35:54;3.95;;;1.75;;
42186;SDS011;27858;51.414;0.018;2024-01-30T01:38:21;5.15;;;1.95;;
42186;SDS011;27858;51.414;0.018;2024-01-30T01:40:47;3.50;;;1.77;;
42186;SDS011;27858;51.414;0.018;2024-01-30T01:43:14;4.55;;;1.60;;
42186;SDS011;27858;51.414;0.018;2024-01-30T01:45:41;12.57;;;1.98;;
42186;SDS011;27858;51.414;0.018;2024-01-30T01:48:08;7.53;;;1.92;;
42186;SDS011;27858;51.414;0.018;2024-01-30T01:50:35;8.77;;;1.45;;
42186;SDS011;27858;51.414;0.018;2024-01-30T01:53:03;8.75;;;1.98;;
42186;SDS011;27858;51.414;0.018;2024-01-30T01:55:31;3.60;;;1.10;;
42186;SDS011;27858;51.414;0.018;2024-01-30T01:57:58;5.15;;;1.35;;
42186;SDS011;27858;51.414;0.018;2024-01-30T02:00:25;6.95;;;1.52;;
42186;SDS011;27858;51.414;0.018;2024-01-30T02:02:53;9.00;;;1.73;;
42186;SDS011;27858;51.414;0.018;2024-01-30T02:05:21;4.75;;;1.20;;
42186;SDS011;27858;51.414;0.018;2024-01-30T02:07:48;5.05;;;1.50;;
42186;SDS011;27858;51.414;0.018;2024-01-30T02:10:16;5.43;;;1.55;;
42186;SDS011;27858;51.414;0.018;2024-01-30T02:12:44;6.18;;;1.50;;
42186;SDS011;27858;51.414;0.018;2024-01-30T02:15:13;2.28;;;1.40;;
42186;SDS011;27858;51.414;0.018;2024-01-30T02:17:40;6.90;;;1.63;;
42186;SDS011;27858;51.414;0.018;2024-01-30T02:20:07;1.45;;;0.80;;
42186;SDS011;27858;51.414;0.018;2024-01-30T02:22:35;4.97;;;1.30;;
42186;SDS011;27858;51.414;0.018;2024-01-30T02:25:03;5.18;;;1.27;;
42186;SDS011;27858;51.414;0.018;2024-01-30T02:27:30;5.10;;;1.75;;
42186;SDS011;27858;51.414;0.018;2024-01-30T02:29:57;10.18;;;1.90;;
42186;SDS011;27858;51.414;0.018;2024-01-30T02:32:25;3.47;;;1.17;;
42186;SDS011;27858;51.414;0.018;2024-01-30T02:34:52;3.15;;;1.10;;
42186;SDS011;27858;51.414;0.018;2024-01-30T02:37:18;5.53;;;1.20;;
42186;SDS011;27858;51.414;0.018;2024-01-30T02:39:45;3.80;;;1.23;;
42186;SDS011;27858;51.414;0.018;2024-01-30T02:42:12;4.68;;;1.23;;
42186;SDS011;27858;51.414;0.018;2024-01-30T02:44:39;2.22;;;0.85;;
42186;SDS011;27858;51.414;0.018;2024-01-30T02:47:06;0.73;;;0.57;;
42186;SDS011;27858;51.414;0.018;2024-01-30T02:49:32;1.85;;;0.90;;
42186;SDS011;27858;51.414;0.018;2024-01-30T02:52:00;1.08;;;0.65;;
42186;SDS011;27858;51.414;0.018;2024-01-30T02:54:26;3.05;;;1.15;;
42186;SDS011;27858;51.414;0.018;2024-01-30T02:56:53;2.55;;;0.70;;
42186;SDS011;27858;51.414;0.018;2024-01-30T02:59:20;3.28;;;1.38;;
42186;SDS011;27858;51.414;0.018;2024-01-30T03:01:47;1.30;;;0.77;;
42186;SDS011;27858;51.414;0.018;2024-01-30T03:04:14;3.53;;;0.90;;
42186;SDS011;27858;51.414;0.018;2024-01-30T03:06:45;3.17;;;0.75;;
42186;SDS011;27858;51.414;0.018;2024-01-30T03:09:15;5.20;;;1.25;;
42186;SDS011;27858;51.414;0.018;2024-01-30T03:11:42;1.55;;;0.70;;
42186;SDS011;27858;51.414;0.018;2024-01-30T03:14:09;1.92;;;0.95;;
42186;SDS011;27858;51.414;0.018;2024-01-30T03:16:39;7.50;;;1.13;;
42186;SDS011;27858;51.414;0.018;2024-01-30T03:19:06;7.15;;;1.20;;
42186;SDS011;27858;51.414;0.018;2024-01-30T03:21:36;2.70;;;0.70;;
42186;SDS011;27858;51.414;0.018;2024-01-30T03:24:03;5.93;;;1.27;;
42186;SDS011;27858;51.414;0.018;2024-01-30T03:26:30;2.40;;;0.90;;
42186;SDS011;27858;51.414;0.018;2024-01-30T03:28:57;2.58;;;0.90;;
42186;SDS011;27858;51.414;0.018;2024-01-30T03:31:24;5.72;;;1.35;;
42186;SDS011;27858;51.414;0.018;2024-01-30T03:33:51;1.20;;;0.75;;
42186;SDS011;27858;51.414;0.018;2024-01-30T03:36:18;2.17;;;1.10;;
42186;SDS011;27858;51.414;0.018;2024-01-30T03:38:44;1.95;;;0.70;;
42186;SDS011;27858;51.414;0.018;2024-01-30T03:41:11;4.80;;;0.60;;
42186;SDS011;27858;51.414;0.018;2024-01-30T03:43:38;5.63;;;1.15;;
42186;SDS011;27858;51.414;0.018;2024-01-30T03:46:05;3.88;;;1.20;;
42186;SDS011;27858;51.414;0.018;2024-01-30T03:48:32;4.70;;;1.60;;
42186;SDS011;27858;51.414;0.018;2024-01-30T03:50:59;4.50;;;1.15;;
42186;SDS011;27858;51.414;0.018;2024-01-30T03:53:26;2.85;;;0.93;;
42186;SDS011;27858;51.414;0.018;2024-01-30T03:55:53;2.85;;;1.25;;
42186;SDS011;27858;51.414;0.018;2024-01-30T03:58:20;1.35;;;0.30;;
42186;SDS011;27858;51.414;0.018;2024-01-30T04:00:47;3.92;;;0.82;;
42186;SDS011;27858;51.414;0.018;2024-01-30T04:03:14;2.10;;;0.40;;
42186;SDS011;27858;51.414;0.018;2024-01-30T04:05:41;5.30;;;0.77;;
42186;SDS011;27858;51.414;0.018;2024-01-30T04:08:09;0.75;;;0.30;;
42186;SDS011;27858;51.414;0.018;2024-01-30T04:10:36;0.73;;;0.60;;
42186;SDS011;27858;51.414;0.018;2024-01-30T04:13:03;1.23;;;0.40;;
42186;SDS011;27858;51.414;0.018;2024-01-30T04:15:30;5.10;;;0.98;;
42186;SDS011;27858;51.414;0.018;2024-01-30T04:17:57;2.15;;;0.60;;
42186;SDS011;27858;51.414;0.018;2024-01-30T04:20:26;1.70;;;0.70;;
42186;SDS011;27858;51.414;0.018;2024-01-30T04:22:53;0.90;;;0.43;;
42186;SDS011;27858;51.414;0.018;2024-01-30T04:25:19;4.05;;;0.65;;
42186;SDS011;27858;51.414;0.018;2024-01-30T04:27:47;3.70;;;1.10;;
42186;SDS011;27858;51.414;0.018;2024-01-30T04:30:14;1.02;;;0.50;;
42186;SDS011;27858;51.414;0.018;2024-01-30T04:32:41;1.25;;;0.30;;
42186;SDS011;27858;51.414;0.018;2024-01-30T04:35:08;1.55;;;0.52;;
42186;SDS011;27858;51.414;0.018;2024-01-30T04:37:37;1.35;;;0.50;;
42186;SDS011;27858;51.414;0.018;2024-01-30T04:40:04;0.45;;;0.20;;
42186;SDS011;27858;51.414;0.018;2024-01-30T04:42:32;0.50;;;0.50;;
42186;SDS011;27858;51.414;0.018;2024-01-30T04:44:59;2.85;;;0.55;;
42186;SDS011;27858;51.414;0.018;2024-01-30T04:47:25;1.75;;;0.30;;
42186;SDS011;27858;51.414;0.018;2024-01-30T04:49:52;1.73;;;0.65;;
42186;SDS011;27858;51.414;0.018;2024-01-30T04:52:19;2.38;;;0.50;;
42186;SDS011;27858;51.414;0.018;2024-01-30T04:54:47;1.55;;;0.75;;
42186;SDS011;27858;51.414;0.018;2024-01-30T04:57:14;2.35;;;0.90;;
42186;SDS011;27858;51.414;0.018;2024-01-30T04:59:40;1.33;;;0.85;;
42186;SDS011;27858;51.414;0.018;2024-01-30T05:02:07;1.65;;;0.73;;
42186;SDS011;27858;51.414;0.018;2024-01-30T05:04:34;5.45;;;1.38;;
42186;SDS011;27858;51.414;0.018;2024-01-30T05:07:01;1.40;;;0.50;;
42186;SDS011;27858;51.414;0.018;2024-01-30T05:09:28;0.45;;;0.40;;
42186;SDS011;27858;51.414;0.018;2024-01-30T05:11:55;4.53;;;0.40;;
42186;SDS011;27858;51.414;0.018;2024-01-30T05:14:22;0.65;;;0.38;;
42186;SDS011;27858;51.414;0.018;2024-01-30T05:16:49;1.48;;;0.50;;
42186;SDS011;27858;51.414;0.018;2024-01-30T05:19:16;1.48;;;0.50;;
42186;SDS011;27858;51.414;0.018;2024-01-30T05:21:43;2.90;;;0.80;;
42186;SDS011;27858;51.414;0.018;2024-01-30T05:24:10;0.80;;;0.50;;
42186;SDS011;27858;51.414;0.018;2024-01-30T05:26:37;2.35;;;1.23;;
42186;SDS011;27858;51.414;0.018;2024-01-30T05:29:04;1.67;;;0.40;;
42186;SDS011;27858;51.414;0.018;2024-01-30T05:31:32;9.68;;;1.30;;
42186;SDS011;27858;51.414;0.018;2024-01-30T05:33:59;0.40;;;0.40;;
42186;SDS011;27858;51.414;0.018;2024-01-30T05:36:26;0.65;;;0.50;;
42186;SDS011;27858;51.414;0.018;2024-01-30T05:38:53;2.05;;;0.52;;
42186;SDS011;27858;51.414;0.018;2024-01-30T05:41:20;2.22;;;0.55;;
42186;SDS011;27858;51.414;0.018;2024-01-30T05:43:49;3.10;;;0.40;;
42186;SDS011;27858;51.414;0.018;2024-01-30T05:46:16;0.40;;;0.40;;
42186;SDS011;27858;51.414;0.018;2024-01-30T05:48:45;1.55;;;0.70;;
42186;SDS011;27858;51.414;0.018;2024-01-30T05:51:12;0.55;;;0.38;;
42186;SDS011;27858;51.414;0.018;2024-01-30T05:53:39;1.17;;;0.50;;
42186;SDS011;27858;51.414;0.018;2024-01-30T05:56:05;1.75;;;0.40;;
42186;SDS011;27858;51.414;0.018;2024-01-30T05:58:34;0.43;;;0.43;;
42186;SDS011;27858;51.414;0.018;2024-01-30T06:01:01;0.80;;;0.30;;
42186;SDS011;27858;51.414;0.018;2024-01-30T06:03:28;0.88;;;0.30;;
42186;SDS011;27858;51.414;0.018;2024-01-30T06:05:54;3.72;;;0.45;;
42186;SDS011;27858;51.414;0.018;2024-01-30T06:08:21;0.30;;;0.30;;
42186;SDS011;27858;51.414;0.018;2024-01-30T06:10:48;1.42;;;0.30;;
42186;SDS011;27858;51.414;0.018;2024-01-30T06:13:15;1.23;;;0.52;;
42186;SDS011;27858;51.414;0.018;2024-01-30T06:15:42;3.40;;;0.75;;
42186;SDS011;27858;51.414;0.018;2024-01-30T06:18:09;0.50;;;0.38;;
42186;SDS011;27858;51.414;0.018;2024-01-30T06:20:36;0.47;;;0.47;;
42186;SDS011;27858;51.414;0.018;2024-01-30T06:23:03;1.55;;;0.88;;
42186;SDS011;27858;51.414;0.018;2024-01-30T06:25:30;1.23;;;0.65;;
42186;SDS011;27858;51.414;0.018;2024-01-30T06:27:56;3.75;;;1.05;;
42186;SDS011;27858;51.414;0.018;2024-01-30T06:30:23;4.38;;;0.45;;
42186;SDS011;27858;51.414;0.018;2024-01-30T06:32:50;0.73;;;0.73;;
42186;SDS011;27858;51.414;0.018;2024-01-30T06:35:17;0.70;;;0.40;;
42186;SDS011;27858;51.414;0.018;2024-01-30T06:37:44;3.05;;;0.82;;
42186;SDS011;27858;51.414;0.018;2024-01-30T06:40:11;0.73;;;0.57;;
42186;SDS011;27858;51.414;0.018;2024-01-30T06:42:39;1.10;;;0.80;;
42186;SDS011;27858;51.414;0.018;2024-01-30T06:45:06;1.13;;;0.90;;
42186;SDS011;27858;51.414;0.018;2024-01-30T06:47:34;2.78;;;1.48;;
42186;SDS011;27858;51.414;0.018;2024-01-30T06:50:01;4.38;;;1.73;;
42186;SDS011;27858;51.414;0.018;2024-01-30T06:52:28;0.80;;;0.70;;
42186;SDS011;27858;51.414;0.018;2024-01-30T06:54:55;1.83;;;1.10;;
42186;SDS011;27858;51.414;0.018;2024-01-30T06:57:22;2.20;;;1.27;;
42186;SDS011;27858;51.414;0.018;2024-01-30T06:59:49;3.15;;;0.98;;
42186;SDS011;27858;51.414;0.018;2024-01-30T07:02:16;1.60;;;1.05;;
42186;SDS011;27858;51.414;0.018;2024-01-30T07:04:43;1.90;;;1.27;;
42186;SDS011;27858;51.414;0.018;2024-01-30T07:07:12;1.63;;;1.17;;
42186;SDS011;27858;51.414;0.018;2024-01-30T07:09:41;2.60;;;1.05;;
42186;SDS011;27858;51.414;0.018;2024-01-30T07:12:11;1.02;;;0.88;;
42186;SDS011;27858;51.414;0.018;2024-01-30T07:14:38;9.25;;;1.73;;
42186;SDS011;27858;51.414;0.018;2024-01-30T07:17:05;2.80;;;1.05;;
42186;SDS011;27858;51.414;0.018;2024-01-30T07:19:32;1.20;;;1.10;;
42186;SDS011;27858;51.414;0.018;2024-01-30T07:21:59;2.05;;;1.20;;
42186;SDS011;27858;51.414;0.018;2024-01-30T07:24:26;2.55;;;1.30;;
42186;SDS011;27858;51.414;0.018;2024-01-30T07:26:53;4.50;;;1.92;;
42186;SDS011;27858;51.414;0.018;2024-01-30T07:29:20;1.25;;;0.98;;
42186;SDS011;27858;51.414;0.018;2024-01-30T07:31:48;1.70;;;1.10;;
42186;SDS011;27858;51.414;0.018;2024-01-30T07:34:14;2.17;;;1.52;;
42186;SDS011;27858;51.414;0.018;2024-01-30T07:36:41;1.75;;;1.00;;
42186;SDS011;27858;51.414;0.018;2024-01-30T07:39:08;2.63;;;1.58;;
42186;SDS011;27858;51.414;0.018;2024-01-30T07:41:36;2.88;;;1.55;;
42186;SDS011;27858;51.414;0.018;2024-01-30T07:44:03;4.65;;;1.08;;
42186;SDS011;27858;51.414;0.018;2024-01-30T07:46:30;5.05;;;0.88;;
42186;SDS011;27858;51.414;0.018;2024-01-30T07:48:57;1.77;;;1.30;;
42186;SDS011;27858;51.414;0.018;2024-01-30T07:51:24;3.63;;;1.23;;
42186;SDS011;27858;51.414;0.018;2024-01-30T07:53:51;1.63;;;0.80;;
42186;SDS011;27858;51.414;0.018;2024-01-30T07:56:18;2.42;;;1.33;;
42186;SDS011;27858;51.414;0.018;2024-01-30T07:58:45;1.85;;;1.17;;
42186;SDS011;27858;51.414;0.018;2024-01-30T08:01:12;3.33;;;1.40;;
42186;SDS011;27858;51.414;0.018;2024-01-30T08:03:41;1.58;;;0.90;;
42186;SDS011;27858;51.414;0.018;2024-01-30T08:06:08;4.93;;;1.45;;
42186;SDS011;27858;51.414;0.018;2024-01-30T08:08:35;1.55;;;1.02;;
42186;SDS011;27858;51.414;0.018;2024-01-30T08:11:03;0.70;;;0.70;;
42186;SDS011;27858;51.414;0.018;2024-01-30T08:13:30;3.03;;;1.10;;
42186;SDS011;27858;51.414;0.018;2024-01-30T08:15:57;1.70;;;1.08;;
42186;SDS011;27858;51.414;0.018;2024-01-30T08:18:24;4.03;;;0.77;;
42186;SDS011;27858;51.414;0.018;2024-01-30T08:20:51;1.48;;;1.10;;
42186;SDS011;27858;51.414;0.018;2024-01-30T08:23:18;1.55;;;0.70;;
42186;SDS011;27858;51.414;0.018;2024-01-30T08:25:45;1.27;;;0.70;;
42186;SDS011;27858;51.414;0.018;2024-01-30T08:28:11;2.00;;;1.15;;
42186;SDS011;27858;51.414;0.018;2024-01-30T08:30:38;1.35;;;0.82;;
42186;SDS011;27858;51.414;0.018;2024-01-30T08:33:06;1.80;;;0.82;;
42186;SDS011;27858;51.414;0.018;2024-01-30T08:35:33;1.17;;;0.50;;
42186;SDS011;27858;51.414;0.018;2024-01-30T08:38:00;1.42;;;0.80;;
42186;SDS011;27858;51.414;0.018;2024-01-30T08:40:27;7.15;;;1.20;;
42186;SDS011;27858;51.414;0.018;2024-01-30T08:42:55;0.45;;;0.30;;
42186;SDS011;27858;51.414;0.018;2024-01-30T08:45:22;1.77;;;0.50;;
42186;SDS011;27858;51.414;0.018;2024-01-30T08:47:49;1.45;;;0.82;;
42186;SDS011;27858;51.414;0.018;2024-01-30T08:50:16;2.13;;;0.43;;
42186;SDS011;27858;51.414;0.018;2024-01-30T08:52:42;3.53;;;1.58;;
42186;SDS011;27858;51.414;0.018;2024-01-30T08:55:12;0.60;;;0.47;;
42186;SDS011;27858;51.414;0.018;2024-01-30T08:57:39;0.30;;;0.22;;
42186;SDS011;27858;51.414;0.018;2024-01-30T09:00:06;0.32;;;0.32;;
42186;SDS011;27858;51.414;0.018;2024-01-30T09:02:35;0.55;;;0.55;;
42186;SDS011;27858;51.414;0.018;2024-01-30T09:05:02;1.45;;;0.57;;
42186;SDS011;27858;51.414;0.018;2024-01-30T09:07:30;0.63;;;0.50;;
42186;SDS011;27858;51.414;0.018;2024-01-30T09:09:57;0.88;;;0.65;;
42186;SDS011;27858;51.414;0.018;2024-01-30T09:12:24;0.75;;;0.47;;
42186;SDS011;27858;51.414;0.018;2024-01-30T09:14:51;2.10;;;0.30;;
42186;SDS011;27858;51.414;0.018;2024-01-30T09:17:17;1.02;;;0.22;;
42186;SDS011;27858;51.414;0.018;2024-01-30T09:19:45;2.30;;;0.38;;
42186;SDS011;27858;51.414;0.018;2024-01-30T09:22:12;0.95;;;0.30;;
42186;SDS011;27858;51.414;0.018;2024-01-30T09:24:39;0.75;;;0.20;;
42186;SDS011;27858;51.414;0.018;2024-01-30T09:27:06;1.10;;;0.30;;
42186;SDS011;27858;51.414;0.018;2024-01-30T09:29:33;0.65;;;0.30;;
42186;SDS011;27858;51.414;0.018;2024-01-30T09:32:03;0.20;;;0.20;;
42186;SDS011;27858;51.414;0.018;2024-01-30T09:34:32;0.95;;;0.25;;
42186;SDS011;27858;51.414;0.018;2024-01-30T09:36:59;0.60;;;0.55;;
42186;SDS011;27858;51.414;0.018;2024-01-30T09:39:26;0.40;;;0.30;;
42186;SDS011;27858;51.414;0.018;2024-01-30T09:42:05;2.05;;;0.40;;
42186;SDS011;27858;51.414;0.018;2024-01-30T09:44:44;5.68;;;1.00;;
42186;SDS011;27858;51.414;0.018;2024-01-30T09:47:13;1.60;;;0.55;;
42186;SDS011;27858;51.414;0.018;2024-01-30T09:49:43;2.30;;;0.63;;
42186;SDS011;27858;51.414;0.018;2024-01-30T09:52:10;1.27;;;0.43;;
42186;SDS011;27858;51.414;0.018;2024-01-30T09:54:38;0.45;;;0.20;;
42186;SDS011;27858;51.414;0.018;2024-01-30T09:57:06;0.93;;;0.20;;
42186;SDS011;27858;51.414;0.018;2024-01-30T09:59:35;0.93;;;0.45;;
42186;SDS011;27858;51.414;0.018;2024-01-30T10:02:02;0.30;;;0.30;;
42186;SDS011;27858;51.414;0.018;2024-01-30T10:04:31;0.50;;;0.30;;
42186;SDS011;27858;51.414;0.018;2024-01-30T10:06:59;0.50;;;0.40;;
42186;SDS011;27858;51.414;0.018;2024-01-30T10:09:29;4.15;;;0.68;;
42186;SDS011;27858;51.414;0.018;2024-01-30T10:11:59;0.57;;;0.25;;
42186;SDS011;27858;51.414;0.018;2024-01-30T10:14:27;2.28;;;0.38;;
42186;SDS011;27858;51.414;0.018;2024-01-30T10:16:55;0.73;;;0.20;;
42186;SDS011;27858;51.414;0.018;2024-01-30T10:19:22;1.08;;;0.40;;
42186;SDS011;27858;51.414;0.018;2024-01-30T10:21:49;0.20;;;0.20;;
42186;SDS011;27858;51.414;0.018;2024-01-30T10:24:16;0.40;;;0.40;;
42186;SDS011;27858;51.414;0.018;2024-01-30T10:26:43;3.00;;;0.60;;
42186;SDS011;27858;51.414;0.018;2024-01-30T10:29:10;0.95;;;0.82;;
42186;SDS011;27858;51.414;0.018;2024-01-30T10:31:37;0.75;;;0.20;;
42186;SDS011;27858;51.414;0.018;2024-01-30T10:34:04;0.47;;;0.30;;
42186;SDS011;27858;51.414;0.018;2024-01-30T10:36:45;1.25;;;0.50;;
42186;SDS011;27858;51.414;0.018;2024-01-30T10:39:16;0.73;;;0.30;;
42186;SDS011;27858;51.414;0.018;2024-01-30T10:41:44;0.43;;;0.40;;
42186;SDS011;27858;51.414;0.018;2024-01-30T10:44:15;0.20;;;0.20;;
42186;SDS011;27858;51.414;0.018;2024-01-30T10:46:51;0.65;;;0.20;;
42186;SDS011;27858;51.414;0.018;2024-01-30T10:49:26;0.57;;;0.50;;
42186;SDS011;27858;51.414;0.018;2024-01-30T10:51:54;0.38;;;0.20;;
42186;SDS011;27858;51.414;0.018;2024-01-30T10:54:22;0.55;;;0.50;;
42186;SDS011;27858;51.414;0.018;2024-01-30T10:56:51;2.05;;;0.38;;
42186;SDS011;27858;51.414;0.018;2024-01-30T10:59:19;5.68;;;0.82;;
42186;SDS011;27858;51.414;0.018;2024-01-30T11:01:48;0.40;;;0.30;;
42186;SDS011;27858;51.414;0.018;2024-01-30T11:04:16;0.20;;;0.20;;
42186;SDS011;27858;51.414;0.018;2024-01-30T11:06:43;0.57;;;0.40;;
42186;SDS011;27858;51.414;0.018;2024-01-30T11:09:11;4.40;;;1.02;;
42186;SDS011;27858;51.414;0.018;2024-01-30T11:14:29;0.38;;;0.10;;
42186;SDS011;27858;51.414;0.018;2024-01-30T11:16:57;0.60;;;0.45;;
42186;SDS011;27858;51.414;0.018;2024-01-30T11:19:25;0.28;;;0.28;;
42186;SDS011;27858;51.414;0.018;2024-01-30T11:21:54;0.60;;;0.50;;
42186;SDS011;27858;51.414;0.018;2024-01-30T11:24:23;2.40;;;0.45;;
42186;SDS011;27858;51.414;0.018;2024-01-30T11:26:59;0.20;;;0.20;;
42186;SDS011;27858;51.414;0.018;2024-01-30T11:29:29;4.38;;;0.60;;
42186;SDS011;27858;51.414;0.018;2024-01-30T11:31:57;0.17;;;0.17;;
42186;SDS011;27858;51.414;0.018;2024-01-30T11:34:25;0.05;;;0.05;;
42186;SDS011;27858;51.414;0.018;2024-01-30T11:36:53;0.30;;;0.25;;
42186;SDS011;27858;51.414;0.018;2024-01-30T11:39:26;1.40;;;0.10;;
42186;SDS011;27858;51.414;0.018;2024-01-30T11:41:54;0.20;;;0.20;;
42186;SDS011;27858;51.414;0.018;2024-01-30T11:44:21;0.73;;;0.15;;
42186;SDS011;27858;51.414;0.018;2024-01-30T11:46:50;0.30;;;0.00;;
42186;SDS011;27858;51.414;0.018;2024-01-30T11:49:18;2.53;;;0.57;;
42186;SDS011;27858;51.414;0.018;2024-01-30T11:51:45;0.20;;;0.10;;
42186;SDS011;27858;51.414;0.018;2024-01-30T11:54:18;1.80;;;0.50;;
42186;SDS011;27858;51.414;0.018;2024-01-30T11:56:45;1.58;;;0.20;;
42186;SDS011;27858;51.414;0.018;2024-01-30T11:59:12;0.80;;;0.40;;
42186;SDS011;27858;51.414;0.018;2024-01-30T12:01:39;0.22;;;0.22;;
42186;SDS011;27858;51.414;0.018;2024-01-30T12:04:07;2.25;;;0.20;;
42186;SDS011;27858;51.414;0.018;2024-01-30T12:06:37;0.98;;;0.73;;
42186;SDS011;27858;51.414;0.018;2024-01-30T12:09:05;0.28;;;0.20;;
42186;SDS011;27858;51.414;0.018;2024-01-30T12:11:43;1.45;;;0.20;;
42186;SDS011;27858;51.414;0.018;2024-01-30T12:14:14;0.13;;;0.13;;
42186;SDS011;27858;51.414;0.018;2024-01-30T12:16:42;0.40;;;0.40;;
42186;SDS011;27858;51.414;0.018;2024-01-30T12:19:09;0.10;;;0.10;;
42186;SDS011;27858;51.414;0.018;2024-01-30T12:21:38;0.10;;;0.10;;
42186;SDS011;27858;51.414;0.018;2024-01-30T12:24:05;0.13;;;0.13;;
42186;SDS011;27858;51.414;0.018;2024-01-30T12:26:33;1.67;;;0.30;;
42186;SDS011;27858;51.414;0.018;2024-01-30T12:29:00;0.63;;;0.10;;
42186;SDS011;27858;51.414;0.018;2024-01-30T12:31:31;0.20;;;0.20;;
42186;SDS011;27858;51.414;0.018;2024-01-30T12:33:59;0.98;;;0.47;;
42186;SDS011;27858;51.414;0.018;2024-01-30T12:36:28;1.58;;;0.30;;
42186;SDS011;27858;51.414;0.018;2024-01-30T12:38:56;0.20;;;0.20;;
42186;SDS011;27858;51.414;0.018;2024-01-30T12:41:24;3.33;;;0.30;;
42186;SDS011;27858;51.414;0.018;2024-01-30T12:43:54;0.20;;;0.20;;
42186;SDS011;27858;51.414;0.018;2024-01-30T12:46:29;8.57;;;0.50;;
42186;SDS011;27858;51.414;0.018;2024-01-30T12:48:56;1.70;;;0.32;;
42186;SDS011;27858;51.414;0.018;2024-01-30T12:51:23;2.92;;;0.63;;
42186;SDS011;27858;51.414;0.018;2024-01-30T12:53:50;0.85;;;0.40;;
42186;SDS011;27858;51.414;0.018;2024-01-30T12:56:17;0.22;;;0.10;;
42186;SDS011;27858;51.414;0.018;2024-01-30T12:58:44;1.95;;;0.60;;
42186;SDS011;27858;51.414;0.018;2024-01-30T13:01:15;0.43;;;0.20;;
42186;SDS011;27858;51.414;0.018;2024-01-30T13:03:42;1.00;;;0.30;;
42186;SDS011;27858;51.414;0.018;2024-01-30T13:06:09;0.77;;;0.30;;
42186;SDS011;27858;51.414;0.018;2024-01-30T13:08:36;0.47;;;0.30;;
42186;SDS011;27858;51.414;0.018;2024-01-30T13:11:03;0.30;;;0.20;;
42186;SDS011;27858;51.414;0.018;2024-01-30T13:13:30;0.20;;;0.20;;
42186;SDS011;27858;51.414;0.018;2024-01-30T13:15:57;1.80;;;0.30;;
42186;SDS011;27858;51.414;0.018;2024-01-30T13:18:24;0.45;;;0.45;;
42186;SDS011;27858;51.414;0.018;2024-01-30T13:20:51;0.28;;;0.28;;
42186;SDS011;27858;51.414;0.018;2024-01-30T13:23:18;0.20;;;0.20;;
42186;SDS011;27858;51.414;0.018;2024-01-30T13:25:45;0.68;;;0.40;;
42186;SDS011;27858;51.414;0.018;2024-01-30T13:28:12;0.30;;;0.30;;
42186;SDS011;27858;51.414;0.018;2024-01-30T13:30:39;0.30;;;0.20;;
42186;SDS011;27858;51.414;0.018;2024-01-30T13:33:06;2.75;;;0.30;;
42186;SDS011;27858;51.414;0.018;2024-01-30T13:35:33;2.28;;;0.52;;
42186;SDS011;27858;51.414;0.018;2024-01-30T13:38:01;1.10;;;0.30;;
42186;SDS011;27858;51.414;0.018;2024-01-30T13:40:28;1.10;;;0.68;;
42186;SDS011;27858;51.414;0.018;2024-01-30T13:42:55;0.57;;;0.30;;
42186;SDS011;27858;51.414;0.018;2024-01-30T13:45:24;0.60;;;0.30;;
42186;SDS011;27858;51.414;0.018;2024-01-30T13:47:51;0.82;;;0.40;;
42186;SDS011;27858;51.414;0.018;2024-01-30T13:50:18;0.45;;;0.20;;
42186;SDS011;27858;51.414;0.018;2024-01-30T13:52:45;0.52;;;0.50;;
42186;SDS011;27858;51.414;0.018;2024-01-30T13:55:12;1.00;;;0.32;;
42186;SDS011;27858;51.414;0.018;2024-01-30T13:57:39;0.10;;;0.10;;
42186;SDS011;27858;51.414;0.018;2024-01-30T14:00:08;0.80;;;0.77;;
42186;SDS011;27858;51.414;0.018;2024-01-30T14:02:35;2.35;;;0.30;;
42186;SDS011;27858;51.414;0.018;2024-01-30T14:05:02;2.72;;;0.65;;
42186;SDS011;27858;51.414;0.018;2024-01-30T14:07:31;0.35;;;0.20;;
42186;SDS011;27858;51.414;0.018;2024-01-30T14:09:59;0.57;;;0.38;;
42186;SDS011;27858;51.414;0.018;2024-01-30T14:12:26;3.03;;;0.85;;
42186;SDS011;27858;51.414;0.018;2024-01-30T14:14:53;0.95;;;0.30;;
42186;SDS011;27858;51.414;0.018;2024-01-30T14:17:19;0.95;;;0.43;;
42186;SDS011;27858;51.414;0.018;2024-01-30T14:19:46;2.17;;;0.70;;
42186;SDS011;27858;51.414;0.018;2024-01-30T14:22:13;0.40;;;0.40;;
42186;SDS011;27858;51.414;0.018;2024-01-30T14:24:40;0.30;;;0.30;;
42186;SDS011;27858;51.414;0.018;2024-01-30T14:27:06;0.40;;;0.20;;
42186;SDS011;27858;51.414;0.018;2024-01-30T14:29:34;1.25;;;0.28;;
42186;SDS011;27858;51.414;0.018;2024-01-30T14:32:01;3.45;;;0.70;;
42186;SDS011;27858;51.414;0.018;2024-01-30T14:34:30;0.25;;;0.25;;
42186;SDS011;27858;51.414;0.018;2024-01-30T14:36:57;3.72;;;0.50;;
42186;SDS011;27858;51.414;0.018;2024-01-30T14:39:25;1.50;;;0.38;;
42186;SDS011;27858;51.414;0.018;2024-01-30T14:41:51;1.67;;;0.82;;
42186;SDS011;27858;51.414;0.018;2024-01-30T14:44:18;3.17;;;0.88;;
42186;SDS011;27858;51.414;0.018;2024-01-30T14:46:45;9.60;;;0.70;;
42186;SDS011;27858;51.414;0.018;2024-01-30T14:49:13;0.80;;;0.52;;